createdAt,value
2023-04-30T00:02:56.190Z,83.58
2023-04-30T00:05:58.103Z,83.54
2023-04-30T00:09:00.024Z,83.54
2023-04-30T00:12:01.929Z,83.89
2023-04-30T00:15:04.566Z,84.01
2023-04-30T00:18:07.263Z,84.28
2023-04-30T00:21:09.423Z,84.33
2023-04-30T00:24:11.337Z,84.21
2023-04-30T00:27:13.237Z,84.31
2023-04-30T00:30:15.437Z,84.00
2023-04-30T00:33:17.300Z,84.21
2023-04-30T00:36:19.464Z,84.79
2023-04-30T00:39:21.378Z,84.78
2023-04-30T00:42:24.231Z,85.06
2023-04-30T00:45:26.731Z,84.93
2023-04-30T00:48:29.013Z,85.28
2023-04-30T00:51:35.368Z,85.16
2023-04-30T00:54:37.447Z,85.96
2023-04-30T00:57:41.070Z,85.86
2023-04-30T01:00:47.296Z,86.48
2023-04-30T01:03:49.463Z,86.68
2023-04-30T01:06:52.155Z,86.83
2023-04-30T01:09:54.884Z,86.87
2023-04-30T01:13:01.954Z,87.36
2023-04-30T01:16:10.509Z,87.23
2023-04-30T01:19:28.485Z,87.53
2023-04-30T01:22:55.285Z,87.93
2023-04-30T01:26:28.839Z,88.47
2023-04-30T01:29:32.811Z,88.66
2023-04-30T01:32:34.778Z,89.36
2023-04-30T01:35:54.803Z,89.14
2023-04-30T01:39:11.572Z,89.21
2023-04-30T01:42:19.668Z,89.04
2023-04-30T01:45:27.252Z,88.99
2023-04-30T01:48:41.660Z,89.73
2023-04-30T01:51:48.384Z,89.71
2023-04-30T01:54:59.374Z,90.60
2023-04-30T01:58:03.541Z,90.22
2023-04-30T02:01:05.593Z,90.29
2023-04-30T02:04:07.585Z,91.18
2023-04-30T02:07:09.547Z,91.54
2023-04-30T02:10:12.527Z,91.47
2023-04-30T02:13:14.367Z,91.63
2023-04-30T02:16:16.466Z,91.80
2023-04-30T02:19:18.403Z,91.70
2023-04-30T02:22:20.442Z,91.90
2023-04-30T02:25:22.442Z,91.90
2023-04-30T02:28:24.405Z,91.92
2023-04-30T02:31:26.345Z,91.95
2023-04-30T02:34:28.309Z,92.07
2023-04-30T02:37:30.230Z,92.41
2023-04-30T02:40:32.131Z,92.29
2023-04-30T02:43:34.063Z,92.62
2023-04-30T02:46:36.015Z,92.69
2023-04-30T02:49:38.002Z,92.71
2023-04-30T02:52:39.941Z,93.10
2023-04-30T02:55:41.930Z,92.54
2023-04-30T02:58:44.408Z,92.44
2023-04-30T03:01:46.631Z,92.65
2023-04-30T03:04:48.518Z,92.82
2023-04-30T03:07:50.500Z,92.45
2023-04-30T03:10:52.474Z,92.79
2023-04-30T03:13:55.501Z,92.43
2023-04-30T03:16:57.403Z,92.73
2023-04-30T03:19:59.307Z,93.12
2023-04-30T03:23:01.155Z,93.36
2023-04-30T03:26:02.973Z,93.64
2023-04-30T03:29:04.904Z,94.01
2023-04-30T03:32:06.714Z,94.37
2023-04-30T03:35:08.899Z,94.47
2023-04-30T03:38:10.944Z,94.75
2023-04-30T03:41:12.906Z,94.45
2023-04-30T03:44:16.198Z,94.49
2023-04-30T03:47:18.400Z,94.97
2023-04-30T03:50:20.378Z,94.71
2023-04-30T03:53:22.328Z,94.50
2023-04-30T03:56:25.909Z,94.37
2023-04-30T03:59:28.303Z,94.24
2023-04-30T04:02:31.985Z,94.49
2023-04-30T04:05:33.973Z,94.45
2023-04-30T04:08:36.786Z,95.09
2023-04-30T04:11:38.722Z,95.02
2023-04-30T04:14:40.595Z,94.95
2023-04-30T04:17:42.611Z,95.43
2023-04-30T04:20:45.086Z,95.45
2023-04-30T04:23:46.970Z,95.51
2023-04-30T04:26:48.957Z,95.35
2023-04-30T04:29:51.299Z,95.45
2023-04-30T04:32:54.172Z,95.16
2023-04-30T04:35:57.960Z,94.98
2023-04-30T04:39:04.019Z,95.12
2023-04-30T04:42:05.973Z,94.76
2023-04-30T04:45:08.550Z,95.04
2023-04-30T04:48:10.492Z,95.08
2023-04-30T04:51:12.778Z,94.95
2023-04-30T04:54:14.811Z,94.84
2023-04-30T04:57:16.760Z,94.51
2023-04-30T05:00:19.214Z,95.05
2023-04-30T05:03:21.469Z,95.24
2023-04-30T05:06:25.087Z,95.13
2023-04-30T05:09:27.861Z,95.28
2023-04-30T05:12:29.711Z,94.82
2023-04-30T05:15:31.677Z,94.82
2023-04-30T05:18:33.580Z,95.05
2023-04-30T05:21:36.506Z,95.02
2023-04-30T05:24:38.221Z,95.26
2023-04-30T05:27:40.090Z,95.99
2023-04-30T05:30:41.915Z,95.51
2023-04-30T05:33:43.959Z,95.44
2023-04-30T05:36:45.915Z,95.65
2023-04-30T05:39:49.095Z,95.63
2023-04-30T05:42:51.059Z,95.72
2023-04-30T05:45:52.913Z,95.56
2023-04-30T05:48:54.833Z,95.64
2023-04-30T05:51:56.774Z,95.38
2023-04-30T05:54:58.744Z,95.58
2023-04-30T05:58:00.815Z,95.60
2023-04-30T06:01:02.851Z,95.30
2023-04-30T06:04:05.252Z,95.48
2023-04-30T06:07:07.218Z,95.48
2023-04-30T06:10:09.867Z,95.21
2023-04-30T06:13:11.754Z,95.45
2023-04-30T06:16:13.648Z,95.34
2023-04-30T06:19:16.213Z,95.32
2023-04-30T06:22:18.166Z,95.13
2023-04-30T06:25:21.064Z,95.76
2023-04-30T06:28:22.949Z,95.64
2023-04-30T06:31:25.110Z,95.75
2023-04-30T06:34:27.124Z,95.45
2023-04-30T06:37:29.052Z,96.07
2023-04-30T06:40:31.000Z,95.81
2023-04-30T06:43:32.825Z,95.45
2023-04-30T06:46:34.973Z,95.56
2023-04-30T06:49:36.976Z,96.02
2023-04-30T06:52:39.329Z,95.76
2023-04-30T06:55:41.975Z,95.82
2023-04-30T06:58:43.905Z,95.51
2023-04-30T07:01:45.752Z,95.63
2023-04-30T07:04:47.664Z,95.26
2023-04-30T07:07:49.573Z,94.83
2023-04-30T07:10:51.486Z,94.87
2023-04-30T07:13:53.806Z,94.40
2023-04-30T07:16:56.416Z,94.94
2023-04-30T07:19:58.470Z,95.24
2023-04-30T07:23:00.306Z,94.68
2023-04-30T07:26:02.202Z,94.52
2023-04-30T07:29:04.863Z,94.94
2023-04-30T07:32:06.786Z,94.20
2023-04-30T07:35:09.108Z,94.55
2023-04-30T07:38:11.177Z,94.62
2023-04-30T07:41:13.269Z,94.00
2023-04-30T07:44:15.330Z,93.98
2023-04-30T07:47:17.715Z,93.84
2023-04-30T07:50:20.049Z,94.34
2023-04-30T07:53:21.895Z,94.27
2023-04-30T07:56:23.706Z,94.04
2023-04-30T07:59:25.660Z,94.16
2023-04-30T08:02:27.841Z,93.77
2023-04-30T08:05:29.971Z,93.73
2023-04-30T08:08:31.840Z,93.95
2023-04-30T08:11:33.766Z,93.62
2023-04-30T08:14:35.831Z,93.48
2023-04-30T08:17:37.848Z,93.17
2023-04-30T08:20:39.876Z,93.10
2023-04-30T08:23:41.914Z,93.46
2023-04-30T08:26:43.805Z,93.58
2023-04-30T08:29:45.827Z,93.74
2023-04-30T08:32:49.052Z,93.32
2023-04-30T08:35:51.166Z,92.96
2023-04-30T08:38:53.155Z,92.71
2023-04-30T08:42:02.354Z,92.94
2023-04-30T08:45:05.209Z,92.80
2023-04-30T08:48:11.604Z,92.93
2023-04-30T08:51:13.532Z,92.26
2023-04-30T08:54:17.777Z,92.29
2023-04-30T08:57:19.659Z,92.23
2023-04-30T09:00:21.790Z,92.21
2023-04-30T09:03:23.807Z,91.99
2023-04-30T09:06:27.394Z,91.89
2023-04-30T09:09:31.093Z,91.71
2023-04-30T09:12:33.050Z,91.73
2023-04-30T09:15:36.907Z,91.69
2023-04-30T09:18:42.121Z,91.40
2023-04-30T09:21:44.050Z,91.26
2023-04-30T09:24:48.307Z,91.46
2023-04-30T09:28:07.561Z,91.29
2023-04-30T09:31:21.104Z,90.99
2023-04-30T09:34:35.467Z,91.00
2023-04-30T09:37:38.506Z,90.60
2023-04-30T09:40:42.633Z,90.65
2023-04-30T09:43:47.307Z,90.43
2023-04-30T09:46:51.124Z,90.13
2023-04-30T09:49:53.917Z,90.17
2023-04-30T09:53:07.067Z,90.10
2023-04-30T09:56:11.834Z,90.12
2023-04-30T09:59:15.041Z,90.01
2023-04-30T10:02:17.445Z,90.36
2023-04-30T10:05:19.717Z,90.25
2023-04-30T10:08:27.070Z,90.33
2023-04-30T10:11:35.881Z,90.69
2023-04-30T10:14:38.022Z,90.74
2023-04-30T10:17:41.692Z,90.56
2023-04-30T10:20:48.937Z,90.80
2023-04-30T10:23:51.980Z,90.14
2023-04-30T10:26:55.115Z,90.16
2023-04-30T10:29:58.111Z,90.34
2023-04-30T10:33:16.877Z,89.70
2023-04-30T10:36:33.891Z,89.81
2023-04-30T10:39:37.845Z,89.71
2023-04-30T10:42:45.968Z,89.92
2023-04-30T10:45:48.759Z,90.03
2023-04-30T10:48:54.955Z,89.75
2023-04-30T10:52:00.772Z,89.05
2023-04-30T10:55:07.555Z,89.28
2023-04-30T10:58:27.418Z,88.77
2023-04-30T11:01:29.888Z,89.19
2023-04-30T11:04:31.803Z,88.98
2023-04-30T11:07:34.584Z,88.84
2023-04-30T11:10:36.571Z,89.23
2023-04-30T11:13:45.337Z,89.20
2023-04-30T11:16:51.323Z,89.16
2023-04-30T11:19:54.348Z,88.74
2023-04-30T11:23:15.707Z,88.34
2023-04-30T11:26:24.820Z,88.19
2023-04-30T11:29:27.099Z,88.28
2023-04-30T11:32:37.412Z,88.72
2023-04-30T11:35:39.759Z,88.55
2023-04-30T11:38:41.869Z,87.83
2023-04-30T11:41:43.765Z,88.42
2023-04-30T11:44:46.284Z,88.81
2023-04-30T11:47:50.575Z,89.33
2023-04-30T11:50:52.547Z,89.07
2023-04-30T11:53:54.642Z,89.02
2023-04-30T11:57:02.344Z,89.24
2023-04-30T12:00:21.312Z,89.34
2023-04-30T12:03:23.320Z,89.51
2023-04-30T12:06:27.821Z,89.39
2023-04-30T12:09:30.217Z,89.63
2023-04-30T12:12:32.621Z,90.06
2023-04-30T12:15:34.494Z,90.19
2023-04-30T12:18:36.438Z,90.48
2023-04-30T12:21:40.287Z,90.23
2023-04-30T12:24:42.221Z,90.64
2023-04-30T12:27:53.550Z,90.44
2023-04-30T12:30:55.810Z,90.67
2023-04-30T12:33:57.744Z,90.46
2023-04-30T12:37:00.179Z,90.52
2023-04-30T12:40:02.678Z,90.94
2023-04-30T12:43:07.152Z,90.98
2023-04-30T12:46:09.228Z,90.46
2023-04-30T12:49:11.476Z,90.14
2023-04-30T12:52:14.218Z,90.08
2023-04-30T12:55:19.672Z,90.25
2023-04-30T12:58:22.421Z,90.45
2023-04-30T13:01:25.479Z,90.42
2023-04-30T13:04:27.895Z,90.75
2023-04-30T13:07:38.711Z,90.81
2023-04-30T13:10:40.790Z,91.06
2023-04-30T13:13:42.691Z,90.96
2023-04-30T13:16:44.628Z,90.57
2023-04-30T13:19:46.743Z,91.90
2023-04-30T13:22:48.860Z,91.64
2023-04-30T13:25:50.694Z,91.59
2023-04-30T13:28:52.651Z,91.07
2023-04-30T13:31:54.591Z,90.95
2023-04-30T13:34:56.862Z,91.10
2023-04-30T13:38:02.450Z,90.77
2023-04-30T13:41:04.503Z,90.80
2023-04-30T13:44:06.554Z,90.93
2023-04-30T13:47:10.341Z,91.16
2023-04-30T13:50:12.405Z,91.18
2023-04-30T13:53:14.486Z,91.07
2023-04-30T13:56:16.429Z,90.47
2023-04-30T13:59:19.257Z,90.89
2023-04-30T14:02:21.294Z,91.04
2023-04-30T14:05:23.212Z,91.55
2023-04-30T14:08:25.189Z,91.69
2023-04-30T14:11:27.582Z,91.60
2023-04-30T14:14:29.762Z,91.34
2023-04-30T14:17:32.171Z,91.35
2023-04-30T14:20:34.059Z,91.55
2023-04-30T14:23:36.382Z,91.57
2023-04-30T14:26:39.182Z,91.56
2023-04-30T14:29:41.193Z,91.87
2023-04-30T14:32:43.033Z,91.83
2023-04-30T14:35:45.662Z,91.51
2023-04-30T14:38:47.748Z,91.75
2023-04-30T14:41:51.140Z,91.68
2023-04-30T14:44:53.641Z,91.96
2023-04-30T14:47:55.588Z,91.66
2023-04-30T14:50:57.500Z,91.67
2023-04-30T14:53:59.498Z,91.32
2023-04-30T14:57:03.463Z,90.97
2023-04-30T15:00:06.901Z,91.59
2023-04-30T15:03:09.017Z,91.83
2023-04-30T15:06:11.296Z,91.51
2023-04-30T15:09:13.917Z,91.95
2023-04-30T15:12:15.794Z,91.82
2023-04-30T15:15:18.857Z,92.02
2023-04-30T15:18:21.013Z,92.07
2023-04-30T15:21:22.986Z,92.10
2023-04-30T15:24:25.126Z,92.14
2023-04-30T15:27:31.799Z,92.54
2023-04-30T15:30:34.328Z,92.34
2023-04-30T15:33:42.136Z,92.39
2023-04-30T15:36:44.160Z,92.34
2023-04-30T15:39:47.799Z,92.44
2023-04-30T15:42:51.024Z,92.26
2023-04-30T15:45:53.168Z,92.41
2023-04-30T15:48:55.126Z,92.42
2023-04-30T15:51:57.067Z,92.28
2023-04-30T15:55:00.563Z,92.62
2023-04-30T15:58:02.448Z,92.28
2023-04-30T16:01:04.583Z,92.71
2023-04-30T16:04:07.029Z,92.78
2023-04-30T16:07:09.315Z,92.66
2023-04-30T16:10:11.838Z,92.32
2023-04-30T16:13:13.964Z,92.33
2023-04-30T16:16:16.781Z,92.75
2023-04-30T16:19:18.814Z,92.58
2023-04-30T16:22:21.720Z,93.02
2023-04-30T16:25:23.553Z,92.71
2023-04-30T16:28:28.392Z,92.81
2023-04-30T16:31:30.861Z,92.73
2023-04-30T16:34:32.750Z,92.79
2023-04-30T16:37:35.090Z,93.31
2023-04-30T16:40:37.400Z,92.91
2023-04-30T16:43:39.408Z,92.91
2023-04-30T16:46:41.965Z,92.87
2023-04-30T16:49:44.688Z,93.01
2023-04-30T16:52:47.270Z,92.98
2023-04-30T16:55:51.801Z,92.93
2023-04-30T16:58:54.887Z,92.81
2023-04-30T17:01:58.712Z,93.10
2023-04-30T17:05:00.855Z,92.92
2023-04-30T17:08:03.291Z,93.03
2023-04-30T17:11:06.429Z,93.13
2023-04-30T17:14:08.749Z,93.13
2023-04-30T17:17:10.765Z,93.26
2023-04-30T17:20:12.678Z,93.19
2023-04-30T17:23:14.601Z,93.16
2023-04-30T17:26:18.372Z,93.28
2023-04-30T17:29:21.141Z,93.07
2023-04-30T17:32:23.383Z,93.35
2023-04-30T17:35:25.673Z,93.31
2023-04-30T17:38:28.354Z,93.31
2023-04-30T17:41:30.484Z,93.28
2023-04-30T17:44:33.732Z,93.36
2023-04-30T17:47:35.820Z,93.30
2023-04-30T17:50:37.838Z,93.51
2023-04-30T17:53:40.643Z,93.35
2023-04-30T17:56:42.764Z,93.54
2023-04-30T17:59:44.735Z,93.39
2023-04-30T18:02:46.972Z,93.50
2023-04-30T18:05:48.901Z,93.79
2023-04-30T18:08:51.025Z,93.65
2023-04-30T18:11:54.033Z,94.05
2023-04-30T18:14:55.983Z,93.68
2023-04-30T18:17:59.456Z,93.82
2023-04-30T18:21:01.474Z,93.71
2023-04-30T18:24:03.515Z,93.96
2023-04-30T18:27:05.294Z,93.84
2023-04-30T18:30:09.536Z,93.69
2023-04-30T18:33:11.527Z,94.05
2023-04-30T18:36:13.515Z,93.89
2023-04-30T18:39:15.559Z,93.70
2023-04-30T18:42:18.478Z,93.71
2023-04-30T18:45:20.580Z,94.06
2023-04-30T18:48:25.520Z,94.14
2023-04-30T18:51:28.563Z,93.78
2023-04-30T18:54:30.515Z,93.92
2023-04-30T18:57:32.466Z,94.03
2023-04-30T19:00:34.456Z,93.96
2023-04-30T19:03:36.494Z,94.17
2023-04-30T19:06:38.604Z,93.89
2023-04-30T19:09:40.665Z,94.28
2023-04-30T19:12:44.032Z,94.75
2023-04-30T19:15:48.737Z,94.54
2023-04-30T19:18:51.656Z,94.38
2023-04-30T19:21:53.593Z,94.75
2023-04-30T19:24:55.776Z,94.65
2023-04-30T19:27:57.713Z,94.39
2023-04-30T19:30:59.735Z,94.92
2023-04-30T19:34:01.740Z,94.74
2023-04-30T19:37:03.806Z,94.79
2023-04-30T19:40:12.956Z,94.70
2023-04-30T19:43:14.929Z,94.71
2023-04-30T19:46:17.561Z,94.51
2023-04-30T19:49:19.700Z,94.46
2023-04-30T19:52:22.558Z,94.52
2023-04-30T19:55:25.716Z,94.86
2023-04-30T19:58:27.949Z,94.70
2023-04-30T20:01:29.954Z,94.79
2023-04-30T20:04:31.849Z,94.79
2023-04-30T20:07:33.828Z,94.56
2023-04-30T20:10:37.346Z,94.73
2023-04-30T20:13:39.225Z,94.68
2023-04-30T20:16:41.531Z,94.57
2023-04-30T20:19:43.620Z,94.84
2023-04-30T20:22:47.689Z,94.80
2023-04-30T20:25:50.313Z,94.82
2023-04-30T20:28:52.296Z,94.67
2023-04-30T20:31:54.474Z,94.53
2023-04-30T20:34:56.891Z,94.46
2023-04-30T20:37:58.939Z,94.34
2023-04-30T20:41:00.827Z,94.61
2023-04-30T20:44:02.649Z,94.47
2023-04-30T20:47:05.541Z,94.72
2023-04-30T20:50:10.535Z,94.77
2023-04-30T20:53:12.604Z,94.80
2023-04-30T20:56:14.598Z,94.74
2023-04-30T20:59:16.551Z,94.92
2023-04-30T21:02:18.728Z,95.07
2023-04-30T21:05:20.616Z,94.85
2023-04-30T21:08:22.530Z,94.69
2023-04-30T21:11:28.946Z,94.81
2023-04-30T21:14:31.687Z,94.49
2023-04-30T21:17:33.693Z,94.82
2023-04-30T21:20:35.619Z,94.82
2023-04-30T21:23:37.575Z,94.72
2023-04-30T21:26:39.370Z,95.09
2023-04-30T21:29:44.464Z,95.42
2023-04-30T21:32:47.205Z,95.64
2023-04-30T21:35:49.268Z,95.46
2023-04-30T21:38:51.382Z,95.31
2023-04-30T21:41:53.688Z,95.45
2023-04-30T21:44:55.550Z,95.11
2023-04-30T21:47:57.587Z,95.33
2023-04-30T21:50:59.671Z,95.44
2023-04-30T21:54:01.533Z,95.21
2023-04-30T21:57:03.844Z,94.99
2023-04-30T22:00:06.773Z,95.15
2023-04-30T22:03:10.351Z,94.79
2023-04-30T22:06:12.264Z,94.79
2023-04-30T22:09:14.555Z,94.77
2023-04-30T22:12:16.485Z,94.70
2023-04-30T22:15:18.464Z,94.75
2023-04-30T22:18:21.349Z,94.88
2023-04-30T22:21:23.236Z,94.75
2023-04-30T22:24:25.534Z,94.88
2023-04-30T22:27:27.572Z,94.60
2023-04-30T22:30:29.513Z,94.77
2023-04-30T22:33:36.284Z,94.65
2023-04-30T22:36:38.077Z,94.67
2023-04-30T22:39:40.005Z,94.65
2023-04-30T22:42:42.763Z,94.62
2023-04-30T22:45:44.754Z,95.09
2023-04-30T22:48:46.784Z,94.92
2023-04-30T22:51:49.014Z,94.95
2023-04-30T22:54:50.971Z,94.83
2023-04-30T22:57:53.123Z,94.67
2023-04-30T23:00:55.096Z,95.00
2023-04-30T23:03:57.192Z,95.25
2023-04-30T23:06:59.115Z,95.36
2023-04-30T23:10:01.023Z,95.42
2023-04-30T23:13:02.965Z,95.95
2023-04-30T23:16:05.846Z,95.43
2023-04-30T23:19:07.718Z,95.49
2023-04-30T23:22:10.431Z,95.34
2023-04-30T23:25:12.713Z,95.62
2023-04-30T23:28:14.552Z,95.81
2023-04-30T23:31:18.032Z,95.93
2023-04-30T23:34:19.904Z,95.78
2023-04-30T23:37:21.794Z,95.86
2023-04-30T23:40:23.731Z,95.85
2023-04-30T23:43:25.679Z,95.71
2023-04-30T23:46:27.661Z,95.54
2023-04-30T23:49:29.680Z,95.60
2023-04-30T23:52:32.019Z,95.59
2023-04-30T23:55:35.071Z,95.99
2023-04-30T23:58:36.945Z,95.63
